sensor_id;sensor_type;location;lat;lon;timestamp;P1;durP1;ratioP1;P2;durP2;ratioP2
26824;SDS011;14402;48.178;11.566;2023-08-08T00:00:26;0.6;;;0.4;;
26824;SDS011;14402;48.178;11.566;2023-08-08T00:00:57;0.6;;;0.4;;
26824;SDS011;14402;48.178;11.566;2023-08-08T00:01:27;0.6;;;0.4;;
26824;SDS011;14402;48.178;11.566;2023-08-08T00:01:57;0.7;;;0.4;;
26824;SDS011;14402;48.178;11.566;2023-08-08T00:02:27;0.7;;;0.4;;
26824;SDS011;14402;48.178;11.566;2023-08-08T00:02:57;0.7;;;0.4;;
26824;SDS011;14402;48.178;11.566;2023-08-08T00:03:27;0.8;;;0.4;;
26824;SDS011;14402;48.178;11.566;2023-08-08T00:03:57;0.9;;;0.5;;
26824;SDS011;14402;48.178;11.566;2023-08-08T00:04:27;0.9;;;0.5;;
26824;SDS011;14402;48.178;11.566;2023-08-08T00:04:57;0.9;;;0.5;;
26824;SDS011;14402;48.178;11.566;2023-08-08T00:05:27;0.9;;;0.5;;
26824;SDS011;14402;48.178;11.566;2023-08-08T00:05:57;0.8;;;0.5;;
26824;SDS011;14402;48.178;11.566;2023-08-08T00:06:27;0.8;;;0.5;;
26824;SDS011;14402;48.178;11.566;2023-08-08T00:06:57;0.8;;;0.5;;
26824;SDS011;14402;48.178;11.566;2023-08-08T00:07:27;1.2;;;0.5;;
26824;SDS011;14402;48.178;11.566;2023-08-08T00:07:58;1.7;;;0.5;;
26824;SDS011;14402;48.178;11.566;2023-08-08T00:08:28;1.7;;;0.5;;
26824;SDS011;14402;48.178;11.566;2023-08-08T00:08:58;1.7;;;0.5;;
26824;SDS011;14402;48.178;11.566;2023-08-08T00:09:28;1.2;;;0.4;;
26824;SDS011;14402;48.178;11.566;2023-08-08T00:09:58;0.8;;;0.4;;
26824;SDS011;14402;48.178;11.566;2023-08-08T00:10:28;0.8;;;0.4;;
26824;SDS011;14402;48.178;11.566;2023-08-08T00:10:58;0.8;;;0.4;;
26824;SDS011;14402;48.178;11.566;2023-08-08T00:11:28;1.0;;;0.4;;
26824;SDS011;14402;48.178;11.566;2023-08-08T00:11:58;1.1;;;0.4;;
26824;SDS011;14402;48.178;11.566;2023-08-08T00:12:28;1.1;;;0.4;;
26824;SDS011;14402;48.178;11.566;2023-08-08T00:12:58;1.1;;;0.4;;
26824;SDS011;14402;48.178;11.566;2023-08-08T00:13:28;1.2;;;0.5;;
26824;SDS011;14402;48.178;11.566;2023-08-08T00:13:58;1.2;;;0.6;;
26824;SDS011;14402;48.178;11.566;2023-08-08T00:14:28;1.2;;;0.6;;
26824;SDS011;14402;48.178;11.566;2023-08-08T00:14:59;1.2;;;0.6;;
26824;SDS011;14402;48.178;11.566;2023-08-08T00:15:29;1.0;;;0.6;;
26824;SDS011;14402;48.178;11.566;2023-08-08T00:15:59;0.7;;;0.5;;
26824;SDS011;14402;48.178;11.566;2023-08-08T00:16:29;0.7;;;0.5;;
26824;SDS011;14402;48.178;11.566;2023-08-08T00:16:59;0.7;;;0.5;;
26824;SDS011;14402;48.178;11.566;2023-08-08T00:17:30;0.9;;;0.6;;
26824;SDS011;14402;48.178;11.566;2023-08-08T00:17:59;1.1;;;0.6;;
26824;SDS011;14402;48.178;11.566;2023-08-08T00:18:29;1.1;;;0.6;;
26824;SDS011;14402;48.178;11.566;2023-08-08T00:18:59;1.1;;;0.6;;
26824;SDS011;14402;48.178;11.566;2023-08-08T00:19:29;0.9;;;0.6;;
26824;SDS011;14402;48.178;11.566;2023-08-08T00:19:59;0.7;;;0.5;;
26824;SDS011;14402;48.178;11.566;2023-08-08T00:20:29;0.7;;;0.5;;
26824;SDS011;14402;48.178;11.566;2023-08-08T00:20:59;0.7;;;0.5;;
26824;SDS011;14402;48.178;11.566;2023-08-08T00:21:29;1.2;;;0.6;;
26824;SDS011;14402;48.178;11.566;2023-08-08T00:21:59;1.7;;;0.7;;
26824;SDS011;14402;48.178;11.566;2023-08-08T00:22:30;1.7;;;0.7;;
26824;SDS011;14402;48.178;11.566;2023-08-08T00:23:00;1.7;;;0.7;;
26824;SDS011;14402;48.178;11.566;2023-08-08T00:23:30;1.5;;;0.6;;
26824;SDS011;14402;48.178;11.566;2023-08-08T00:24:00;1.2;;;0.6;;
26824;SDS011;14402;48.178;11.566;2023-08-08T00:24:30;1.2;;;0.6;;
26824;SDS011;14402;48.178;11.566;2023-08-08T00:25:00;1.2;;;0.6;;
26824;SDS011;14402;48.178;11.566;2023-08-08T00:25:30;1.0;;;0.5;;
26824;SDS011;14402;48.178;11.566;2023-08-08T00:26:00;0.7;;;0.4;;
26824;SDS011;14402;48.178;11.566;2023-08-08T00:26:30;0.7;;;0.4;;
26824;SDS011;14402;48.178;11.566;2023-08-08T00:27:00;0.7;;;0.4;;
26824;SDS011;14402;48.178;11.566;2023-08-08T00:27:30;0.7;;;0.4;;
26824;SDS011;14402;48.178;11.566;2023-08-08T00:28:00;0.7;;;0.5;;
26824;SDS011;14402;48.178;11.566;2023-08-08T00:28:30;0.7;;;0.5;;
26824;SDS011;14402;48.178;11.566;2023-08-08T00:29:00;0.7;;;0.5;;
26824;SDS011;14402;48.178;11.566;2023-08-08T00:29:30;0.7;;;0.5;;
26824;SDS011;14402;48.178;11.566;2023-08-08T00:30:01;0.7;;;0.5;;
26824;SDS011;14402;48.178;11.566;2023-08-08T00:30:31;0.7;;;0.5;;
26824;SDS011;14402;48.178;11.566;2023-08-08T00:31:01;0.7;;;0.5;;
26824;SDS011;14402;48.178;11.566;2023-08-08T00:31:31;0.9;;;0.5;;
26824;SDS011;14402;48.178;11.566;2023-08-08T00:32:01;1.1;;;0.5;;
26824;SDS011;14402;48.178;11.566;2023-08-08T00:32:31;1.1;;;0.5;;
26824;SDS011;14402;48.178;11.566;2023-08-08T00:33:01;1.1;;;0.5;;
26824;SDS011;14402;48.178;11.566;2023-08-08T00:33:31;1.1;;;0.4;;
26824;SDS011;14402;48.178;11.566;2023-08-08T00:34:01;1.1;;;0.4;;
26824;SDS011;14402;48.178;11.566;2023-08-08T00:34:31;1.1;;;0.4;;
26824;SDS011;14402;48.178;11.566;2023-08-08T00:35:01;1.1;;;0.4;;
26824;SDS011;14402;48.178;11.566;2023-08-08T00:35:31;1.0;;;0.4;;
26824;SDS011;14402;48.178;11.566;2023-08-08T00:36:02;1.0;;;0.5;;
26824;SDS011;14402;48.178;11.566;2023-08-08T00:36:31;1.0;;;0.5;;
26824;SDS011;14402;48.178;11.566;2023-08-08T00:37:02;1.0;;;0.5;;
26824;SDS011;14402;48.178;11.566;2023-08-08T00:37:32;1.0;;;0.4;;
26824;SDS011;14402;48.178;11.566;2023-08-08T00:38:02;1.0;;;0.4;;
26824;SDS011;14402;48.178;11.566;2023-08-08T00:38:32;1.0;;;0.4;;
26824;SDS011;14402;48.178;11.566;2023-08-08T00:39:02;1.0;;;0.4;;
26824;SDS011;14402;48.178;11.566;2023-08-08T00:39:32;0.9;;;0.6;;
26824;SDS011;14402;48.178;11.566;2023-08-08T00:40:02;0.9;;;0.7;;
26824;SDS011;14402;48.178;11.566;2023-08-08T00:40:32;0.9;;;0.7;;
26824;SDS011;14402;48.178;11.566;2023-08-08T00:41:02;0.9;;;0.7;;
26824;SDS011;14402;48.178;11.566;2023-08-08T00:41:32;1.0;;;0.7;;
26824;SDS011;14402;48.178;11.566;2023-08-08T00:42:02;1.1;;;0.7;;
26824;SDS011;14402;48.178;11.566;2023-08-08T00:42:32;1.1;;;0.7;;
26824;SDS011;14402;48.178;11.566;2023-08-08T00:43:02;1.1;;;0.7;;
26824;SDS011;14402;48.178;11.566;2023-08-08T00:43:32;1.5;;;0.6;;
26824;SDS011;14402;48.178;11.566;2023-08-08T00:44:03;1.9;;;0.5;;
26824;SDS011;14402;48.178;11.566;2023-08-08T00:44:33;1.9;;;0.5;;
26824;SDS011;14402;48.178;11.566;2023-08-08T00:45:03;1.9;;;0.5;;
26824;SDS011;14402;48.178;11.566;2023-08-08T00:45:33;1.5;;;0.5;;
26824;SDS011;14402;48.178;11.566;2023-08-08T00:46:03;1.0;;;0.5;;
26824;SDS011;14402;48.178;11.566;2023-08-08T00:46:33;1.0;;;0.5;;
26824;SDS011;14402;48.178;11.566;2023-08-08T00:47:03;1.0;;;0.5;;
26824;SDS011;14402;48.178;11.566;2023-08-08T00:47:33;0.9;;;0.5;;
26824;SDS011;14402;48.178;11.566;2023-08-08T00:48:03;0.9;;;0.5;;
26824;SDS011;14402;48.178;11.566;2023-08-08T00:48:33;0.9;;;0.5;;
26824;SDS011;14402;48.178;11.566;2023-08-08T00:49:03;0.9;;;0.5;;
26824;SDS011;14402;48.178;11.566;2023-08-08T00:49:33;0.7;;;0.4;;
26824;SDS011;14402;48.178;11.566;2023-08-08T00:50:04;0.5;;;0.4;;
26824;SDS011;14402;48.178;11.566;2023-08-08T00:50:34;0.5;;;0.4;;
26824;SDS011;14402;48.178;11.566;2023-08-08T00:51:03;0.5;;;0.4;;
26824;SDS011;14402;48.178;11.566;2023-08-08T00:51:34;0.6;;;0.4;;
26824;SDS011;14402;48.178;11.566;2023-08-08T00:52:04;0.8;;;0.3;;
26824;SDS011;14402;48.178;11.566;2023-08-08T00:52:34;0.8;;;0.3;;
26824;SDS011;14402;48.178;11.566;2023-08-08T00:53:04;0.8;;;0.3;;
26824;SDS011;14402;48.178;11.566;2023-08-08T00:53:34;0.9;;;0.5;;
26824;SDS011;14402;48.178;11.566;2023-08-08T00:54:04;0.9;;;0.7;;
26824;SDS011;14402;48.178;11.566;2023-08-08T00:54:34;0.9;;;0.7;;
26824;SDS011;14402;48.178;11.566;2023-08-08T00:55:05;0.9;;;0.7;;
26824;SDS011;14402;48.178;11.566;2023-08-08T00:55:34;0.8;;;0.6;;
26824;SDS011;14402;48.178;11.566;2023-08-08T00:56:04;0.7;;;0.4;;
26824;SDS011;14402;48.178;11.566;2023-08-08T00:56:34;0.7;;;0.4;;
26824;SDS011;14402;48.178;11.566;2023-08-08T00:57:04;0.7;;;0.4;;
26824;SDS011;14402;48.178;11.566;2023-08-08T00:57:34;0.9;;;0.4;;
26824;SDS011;14402;48.178;11.566;2023-08-08T00:58:04;1.0;;;0.4;;
26824;SDS011;14402;48.178;11.566;2023-08-08T00:58:35;1.0;;;0.4;;
26824;SDS011;14402;48.178;11.566;2023-08-08T00:59:05;1.0;;;0.4;;
26824;SDS011;14402;48.178;11.566;2023-08-08T00:59:35;0.9;;;0.6;;
26824;SDS011;14402;48.178;11.566;2023-08-08T01:00:05;0.9;;;0.7;;
26824;SDS011;14402;48.178;11.566;2023-08-08T01:00:35;0.9;;;0.7;;
26824;SDS011;14402;48.178;11.566;2023-08-08T01:01:05;0.9;;;0.7;;
26824;SDS011;14402;48.178;11.566;2023-08-08T01:01:35;0.8;;;0.6;;
26824;SDS011;14402;48.178;11.566;2023-08-08T01:02:05;0.7;;;0.5;;
26824;SDS011;14402;48.178;11.566;2023-08-08T01:02:35;0.7;;;0.5;;
26824;SDS011;14402;48.178;11.566;2023-08-08T01:03:05;0.7;;;0.5;;
26824;SDS011;14402;48.178;11.566;2023-08-08T01:03:35;1.1;;;0.6;;
26824;SDS011;14402;48.178;11.566;2023-08-08T01:04:05;1.6;;;0.7;;
26824;SDS011;14402;48.178;11.566;2023-08-08T01:04:35;1.6;;;0.7;;
26824;SDS011;14402;48.178;11.566;2023-08-08T01:05:06;1.6;;;0.7;;
26824;SDS011;14402;48.178;11.566;2023-08-08T01:05:38;1.2;;;0.6;;
26824;SDS011;14402;48.178;11.566;2023-08-08T01:06:13;0.9;;;0.5;;
26824;SDS011;14402;48.178;11.566;2023-08-08T01:06:37;0.9;;;0.5;;
26824;SDS011;14402;48.178;11.566;2023-08-08T01:07:06;0.9;;;0.5;;
26824;SDS011;14402;48.178;11.566;2023-08-08T01:07:37;0.8;;;0.5;;
26824;SDS011;14402;48.178;11.566;2023-08-08T01:08:06;0.7;;;0.5;;
26824;SDS011;14402;48.178;11.566;2023-08-08T01:08:39;0.7;;;0.5;;
26824;SDS011;14402;48.178;11.566;2023-08-08T01:09:08;0.7;;;0.5;;
26824;SDS011;14402;48.178;11.566;2023-08-08T01:09:37;0.9;;;0.6;;
26824;SDS011;14402;48.178;11.566;2023-08-08T01:10:07;1.1;;;0.8;;
26824;SDS011;14402;48.178;11.566;2023-08-08T01:10:37;1.1;;;0.8;;
26824;SDS011;14402;48.178;11.566;2023-08-08T01:11:06;1.1;;;0.8;;
26824;SDS011;14402;48.178;11.566;2023-08-08T01:11:36;1.0;;;0.6;;
26824;SDS011;14402;48.178;11.566;2023-08-08T01:12:07;1.0;;;0.4;;
26824;SDS011;14402;48.178;11.566;2023-08-08T01:12:38;1.0;;;0.4;;
26824;SDS011;14402;48.178;11.566;2023-08-08T01:13:08;1.0;;;0.4;;
26824;SDS011;14402;48.178;11.566;2023-08-08T01:13:37;1.4;;;0.6;;
26824;SDS011;14402;48.178;11.566;2023-08-08T01:14:07;1.7;;;0.7;;
26824;SDS011;14402;48.178;11.566;2023-08-08T01:14:37;1.7;;;0.7;;
26824;SDS011;14402;48.178;11.566;2023-08-08T01:15:07;1.7;;;0.7;;
26824;SDS011;14402;48.178;11.566;2023-08-08T01:15:37;1.7;;;0.6;;
26824;SDS011;14402;48.178;11.566;2023-08-08T01:16:07;1.6;;;0.5;;
26824;SDS011;14402;48.178;11.566;2023-08-08T01:16:37;1.6;;;0.5;;
26824;SDS011;14402;48.178;11.566;2023-08-08T01:17:09;1.6;;;0.5;;
26824;SDS011;14402;48.178;11.566;2023-08-08T01:17:37;2.0;;;0.6;;
26824;SDS011;14402;48.178;11.566;2023-08-08T01:18:08;2.3;;;0.6;;
26824;SDS011;14402;48.178;11.566;2023-08-08T01:18:37;2.3;;;0.6;;
26824;SDS011;14402;48.178;11.566;2023-08-08T01:19:07;2.3;;;0.6;;
26824;SDS011;14402;48.178;11.566;2023-08-08T01:19:37;1.5;;;0.5;;
26824;SDS011;14402;48.178;11.566;2023-08-08T01:20:08;0.6;;;0.4;;
26824;SDS011;14402;48.178;11.566;2023-08-08T01:20:38;0.6;;;0.4;;
26824;SDS011;14402;48.178;11.566;2023-08-08T01:21:08;0.6;;;0.4;;
26824;SDS011;14402;48.178;11.566;2023-08-08T01:21:38;0.8;;;0.5;;
26824;SDS011;14402;48.178;11.566;2023-08-08T01:22:09;1.0;;;0.6;;
26824;SDS011;14402;48.178;11.566;2023-08-08T01:22:39;1.0;;;0.6;;
26824;SDS011;14402;48.178;11.566;2023-08-08T01:23:09;1.0;;;0.6;;
26824;SDS011;14402;48.178;11.566;2023-08-08T01:23:41;1.0;;;0.6;;
26824;SDS011;14402;48.178;11.566;2023-08-08T01:24:17;1.0;;;0.5;;
26824;SDS011;14402;48.178;11.566;2023-08-08T01:24:38;1.0;;;0.5;;
26824;SDS011;14402;48.178;11.566;2023-08-08T01:25:08;1.0;;;0.5;;
26824;SDS011;14402;48.178;11.566;2023-08-08T01:25:38;0.9;;;0.5;;
26824;SDS011;14402;48.178;11.566;2023-08-08T01:26:08;0.8;;;0.5;;
26824;SDS011;14402;48.178;11.566;2023-08-08T01:26:38;0.8;;;0.5;;
26824;SDS011;14402;48.178;11.566;2023-08-08T01:27:08;0.8;;;0.5;;
26824;SDS011;14402;48.178;11.566;2023-08-08T01:27:38;1.1;;;0.5;;
26824;SDS011;14402;48.178;11.566;2023-08-08T01:28:09;1.5;;;0.5;;
26824;SDS011;14402;48.178;11.566;2023-08-08T01:28:39;1.5;;;0.5;;
26824;SDS011;14402;48.178;11.566;2023-08-08T01:29:09;1.5;;;0.5;;
26824;SDS011;14402;48.178;11.566;2023-08-08T01:29:39;1.0;;;0.5;;
26824;SDS011;14402;48.178;11.566;2023-08-08T01:30:09;0.6;;;0.5;;
26824;SDS011;14402;48.178;11.566;2023-08-08T01:30:39;0.6;;;0.5;;
26824;SDS011;14402;48.178;11.566;2023-08-08T01:31:09;0.6;;;0.5;;
26824;SDS011;14402;48.178;11.566;2023-08-08T01:31:39;0.6;;;0.4;;
26824;SDS011;14402;48.178;11.566;2023-08-08T01:32:09;0.7;;;0.4;;
26824;SDS011;14402;48.178;11.566;2023-08-08T01:32:39;0.7;;;0.4;;
26824;SDS011;14402;48.178;11.566;2023-08-08T01:33:09;0.7;;;0.4;;
26824;SDS011;14402;48.178;11.566;2023-08-08T01:33:39;0.8;;;0.4;;
26824;SDS011;14402;48.178;11.566;2023-08-08T01:34:09;0.9;;;0.4;;
26824;SDS011;14402;48.178;11.566;2023-08-08T01:34:40;0.9;;;0.4;;
26824;SDS011;14402;48.178;11.566;2023-08-08T01:35:10;0.9;;;0.4;;
26824;SDS011;14402;48.178;11.566;2023-08-08T01:35:41;0.9;;;0.4;;
26824;SDS011;14402;48.178;11.566;2023-08-08T01:36:10;0.9;;;0.5;;
26824;SDS011;14402;48.178;11.566;2023-08-08T01:36:41;0.9;;;0.5;;
26824;SDS011;14402;48.178;11.566;2023-08-08T01:37:12;0.9;;;0.5;;
26824;SDS011;14402;48.178;11.566;2023-08-08T01:37:41;0.9;;;0.6;;
26824;SDS011;14402;48.178;11.566;2023-08-08T01:38:11;1.0;;;0.6;;
26824;SDS011;14402;48.178;11.566;2023-08-08T01:38:41;1.0;;;0.6;;
26824;SDS011;14402;48.178;11.566;2023-08-08T01:39:11;1.0;;;0.6;;
26824;SDS011;14402;48.178;11.566;2023-08-08T01:39:40;1.0;;;0.6;;
26824;SDS011;14402;48.178;11.566;2023-08-08T01:40:11;1.0;;;0.5;;
26824;SDS011;14402;48.178;11.566;2023-08-08T01:40:40;1.0;;;0.5;;
26824;SDS011;14402;48.178;11.566;2023-08-08T01:41:10;1.0;;;0.5;;
26824;SDS011;14402;48.178;11.566;2023-08-08T01:41:40;1.0;;;0.4;;
26824;SDS011;14402;48.178;11.566;2023-08-08T01:42:11;1.1;;;0.4;;
26824;SDS011;14402;48.178;11.566;2023-08-08T01:42:41;1.1;;;0.4;;
26824;SDS011;14402;48.178;11.566;2023-08-08T01:43:11;1.1;;;0.4;;
26824;SDS011;14402;48.178;11.566;2023-08-08T01:43:41;2.0;;;0.4;;
26824;SDS011;14402;48.178;11.566;2023-08-08T01:44:11;2.8;;;0.5;;
26824;SDS011;14402;48.178;11.566;2023-08-08T01:44:41;2.8;;;0.5;;
26824;SDS011;14402;48.178;11.566;2023-08-08T01:45:11;2.8;;;0.5;;
26824;SDS011;14402;48.178;11.566;2023-08-08T01:45:41;2.3;;;0.6;;
26824;SDS011;14402;48.178;11.566;2023-08-08T01:46:11;1.9;;;0.7;;
26824;SDS011;14402;48.178;11.566;2023-08-08T01:46:41;1.9;;;0.7;;
26824;SDS011;14402;48.178;11.566;2023-08-08T01:47:11;1.9;;;0.7;;
26824;SDS011;14402;48.178;11.566;2023-08-08T01:47:41;1.4;;;0.6;;
26824;SDS011;14402;48.178;11.566;2023-08-08T01:48:11;0.9;;;0.6;;
26824;SDS011;14402;48.178;11.566;2023-08-08T01:48:44;0.9;;;0.6;;
26824;SDS011;14402;48.178;11.566;2023-08-08T01:49:12;0.9;;;0.6;;
26824;SDS011;14402;48.178;11.566;2023-08-08T01:49:42;1.0;;;0.6;;
26824;SDS011;14402;48.178;11.566;2023-08-08T01:50:12;1.2;;;0.6;;
26824;SDS011;14402;48.178;11.566;2023-08-08T01:50:42;1.2;;;0.6;;
26824;SDS011;14402;48.178;11.566;2023-08-08T01:51:12;1.2;;;0.6;;
26824;SDS011;14402;48.178;11.566;2023-08-08T01:51:42;1.2;;;0.6;;
26824;SDS011;14402;48.178;11.566;2023-08-08T01:52:12;1.3;;;0.5;;
26824;SDS011;14402;48.178;11.566;2023-08-08T01:52:42;1.3;;;0.5;;
26824;SDS011;14402;48.178;11.566;2023-08-08T01:53:12;1.3;;;0.5;;
26824;SDS011;14402;48.178;11.566;2023-08-08T01:53:42;1.4;;;0.5;;
26824;SDS011;14402;48.178;11.566;2023-08-08T01:54:12;1.5;;;0.5;;
26824;SDS011;14402;48.178;11.566;2023-08-08T01:54:42;1.5;;;0.5;;
26824;SDS011;14402;48.178;11.566;2023-08-08T01:55:12;1.5;;;0.5;;
26824;SDS011;14402;48.178;11.566;2023-08-08T01:55:42;1.5;;;0.6;;
26824;SDS011;14402;48.178;11.566;2023-08-08T01:56:12;1.6;;;0.6;;
26824;SDS011;14402;48.178;11.566;2023-08-08T01:56:43;1.6;;;0.6;;
26824;SDS011;14402;48.178;11.566;2023-08-08T01:57:13;1.6;;;0.6;;
26824;SDS011;14402;48.178;11.566;2023-08-08T01:57:43;1.2;;;0.6;;
26824;SDS011;14402;48.178;11.566;2023-08-08T01:58:13;0.9;;;0.5;;
26824;SDS011;14402;48.178;11.566;2023-08-08T01:58:43;0.9;;;0.5;;
26824;SDS011;14402;48.178;11.566;2023-08-08T01:59:13;0.9;;;0.5;;
26824;SDS011;14402;48.178;11.566;2023-08-08T01:59:44;0.8;;;0.6;;
26824;SDS011;14402;48.178;11.566;2023-08-08T02:00:13;0.7;;;0.6;;
26824;SDS011;14402;48.178;11.566;2023-08-08T02:00:43;0.7;;;0.6;;
26824;SDS011;14402;48.178;11.566;2023-08-08T02:01:13;0.7;;;0.6;;
26824;SDS011;14402;48.178;11.566;2023-08-08T02:01:43;1.0;;;0.5;;
26824;SDS011;14402;48.178;11.566;2023-08-08T02:02:13;1.3;;;0.4;;
26824;SDS011;14402;48.178;11.566;2023-08-08T02:02:43;1.3;;;0.4;;
26824;SDS011;14402;48.178;11.566;2023-08-08T02:03:14;1.3;;;0.4;;
26824;SDS011;14402;48.178;11.566;2023-08-08T02:03:43;1.2;;;0.6;;
26824;SDS011;14402;48.178;11.566;2023-08-08T02:04:14;1.2;;;0.7;;
26824;SDS011;14402;48.178;11.566;2023-08-08T02:04:44;1.2;;;0.7;;
26824;SDS011;14402;48.178;11.566;2023-08-08T02:05:14;1.2;;;0.7;;
26824;SDS011;14402;48.178;11.566;2023-08-08T02:05:44;1.0;;;0.6;;
26824;SDS011;14402;48.178;11.566;2023-08-08T02:06:14;0.7;;;0.5;;
26824;SDS011;14402;48.178;11.566;2023-08-08T02:06:44;0.7;;;0.5;;
26824;SDS011;14402;48.178;11.566;2023-08-08T02:07:14;0.7;;;0.5;;
26824;SDS011;14402;48.178;11.566;2023-08-08T02:07:44;1.0;;;0.4;;
26824;SDS011;14402;48.178;11.566;2023-08-08T02:08:14;1.3;;;0.4;;
26824;SDS011;14402;48.178;11.566;2023-08-08T02:08:45;1.3;;;0.4;;
26824;SDS011;14402;48.178;11.566;2023-08-08T02:09:14;1.3;;;0.4;;
26824;SDS011;14402;48.178;11.566;2023-08-08T02:09:44;1.3;;;0.4;;
26824;SDS011;14402;48.178;11.566;2023-08-08T02:10:15;1.3;;;0.4;;
26824;SDS011;14402;48.178;11.566;2023-08-08T02:10:45;1.3;;;0.4;;
26824;SDS011;14402;48.178;11.566;2023-08-08T02:11:15;1.3;;;0.4;;
26824;SDS011;14402;48.178;11.566;2023-08-08T02:11:45;1.2;;;0.6;;
26824;SDS011;14402;48.178;11.566;2023-08-08T02:12:15;1.2;;;0.7;;
26824;SDS011;14402;48.178;11.566;2023-08-08T02:12:45;1.2;;;0.7;;
26824;SDS011;14402;48.178;11.566;2023-08-08T02:13:15;1.2;;;0.7;;
26824;SDS011;14402;48.178;11.566;2023-08-08T02:13:45;1.4;;;0.6;;
26824;SDS011;14402;48.178;11.566;2023-08-08T02:14:15;1.6;;;0.6;;
26824;SDS011;14402;48.178;11.566;2023-08-08T02:14:45;1.6;;;0.6;;
26824;SDS011;14402;48.178;11.566;2023-08-08T02:15:15;1.6;;;0.6;;
26824;SDS011;14402;48.178;11.566;2023-08-08T02:15:45;1.3;;;0.6;;
26824;SDS011;14402;48.178;11.566;2023-08-08T02:16:15;1.0;;;0.5;;
26824;SDS011;14402;48.178;11.566;2023-08-08T02:16:45;1.0;;;0.5;;
26824;SDS011;14402;48.178;11.566;2023-08-08T02:17:17;1.0;;;0.5;;
26824;SDS011;14402;48.178;11.566;2023-08-08T02:17:46;1.0;;;0.5;;
26824;SDS011;14402;48.178;11.566;2023-08-08T02:18:16;1.0;;;0.5;;
26824;SDS011;14402;48.178;11.566;2023-08-08T02:18:46;1.0;;;0.5;;
26824;SDS011;14402;48.178;11.566;2023-08-08T02:19:16;1.0;;;0.5;;
26824;SDS011;14402;48.178;11.566;2023-08-08T02:19:46;0.8;;;0.5;;
26824;SDS011;14402;48.178;11.566;2023-08-08T02:20:16;0.6;;;0.5;;
26824;SDS011;14402;48.178;11.566;2023-08-08T02:20:46;0.6;;;0.5;;
26824;SDS011;14402;48.178;11.566;2023-08-08T02:21:16;0.6;;;0.5;;
26824;SDS011;14402;48.178;11.566;2023-08-08T02:21:46;0.8;;;0.5;;
26824;SDS011;14402;48.178;11.566;2023-08-08T02:22:16;1.0;;;0.5;;
26824;SDS011;14402;48.178;11.566;2023-08-08T02:22:46;1.0;;;0.5;;
26824;SDS011;14402;48.178;11.566;2023-08-08T02:23:16;1.0;;;0.5;;
26824;SDS011;14402;48.178;11.566;2023-08-08T02:23:46;1.1;;;0.6;;
26824;SDS011;14402;48.178;11.566;2023-08-08T02:24:16;1.2;;;0.6;;
26824;SDS011;14402;48.178;11.566;2023-08-08T02:24:47;1.2;;;0.6;;
26824;SDS011;14402;48.178;11.566;2023-08-08T02:25:17;1.2;;;0.6;;
26824;SDS011;14402;48.178;11.566;2023-08-08T02:25:47;1.4;;;0.6;;
26824;SDS011;14402;48.178;11.566;2023-08-08T02:26:17;1.6;;;0.7;;
26824;SDS011;14402;48.178;11.566;2023-08-08T02:26:47;1.6;;;0.7;;
26824;SDS011;14402;48.178;11.566;2023-08-08T02:27:17;1.6;;;0.7;;
26824;SDS011;14402;48.178;11.566;2023-08-08T02:27:47;1.2;;;0.6;;
26824;SDS011;14402;48.178;11.566;2023-08-08T02:28:17;0.8;;;0.6;;
26824;SDS011;14402;48.178;11.566;2023-08-08T02:28:47;0.8;;;0.6;;
26824;SDS011;14402;48.178;11.566;2023-08-08T02:29:17;0.8;;;0.6;;
26824;SDS011;14402;48.178;11.566;2023-08-08T02:29:47;0.9;;;0.6;;
26824;SDS011;14402;48.178;11.566;2023-08-08T02:30:17;0.9;;;0.5;;
26824;SDS011;14402;48.178;11.566;2023-08-08T02:30:47;0.9;;;0.5;;
26824;SDS011;14402;48.178;11.566;2023-08-08T02:31:17;0.9;;;0.5;;
26824;SDS011;14402;48.178;11.566;2023-08-08T02:31:47;1.2;;;0.5;;
26824;SDS011;14402;48.178;11.566;2023-08-08T02:32:18;1.6;;;0.5;;
26824;SDS011;14402;48.178;11.566;2023-08-08T02:32:48;1.6;;;0.5;;
26824;SDS011;14402;48.178;11.566;2023-08-08T02:33:18;1.6;;;0.5;;
26824;SDS011;14402;48.178;11.566;2023-08-08T02:33:48;1.1;;;0.5;;
26824;SDS011;14402;48.178;11.566;2023-08-08T02:34:18;0.6;;;0.5;;
26824;SDS011;14402;48.178;11.566;2023-08-08T02:34:48;0.6;;;0.5;;
26824;SDS011;14402;48.178;11.566;2023-08-08T02:35:18;0.6;;;0.5;;
26824;SDS011;14402;48.178;11.566;2023-08-08T02:35:48;0.9;;;0.6;;
26824;SDS011;14402;48.178;11.566;2023-08-08T02:36:18;1.3;;;0.8;;
26824;SDS011;14402;48.178;11.566;2023-08-08T02:36:48;1.3;;;0.8;;
26824;SDS011;14402;48.178;11.566;2023-08-08T02:37:18;1.3;;;0.8;;
26824;SDS011;14402;48.178;11.566;2023-08-08T02:37:48;1.2;;;0.8;;
26824;SDS011;14402;48.178;11.566;2023-08-08T02:38:18;1.1;;;0.7;;
26824;SDS011;14402;48.178;11.566;2023-08-08T02:38:48;1.1;;;0.7;;
26824;SDS011;14402;48.178;11.566;2023-08-08T02:39:19;1.1;;;0.7;;
26824;SDS011;14402;48.178;11.566;2023-08-08T02:39:49;0.9;;;0.6;;
26824;SDS011;14402;48.178;11.566;2023-08-08T02:40:19;0.6;;;0.5;;
26824;SDS011;14402;48.178;11.566;2023-08-08T02:40:49;0.6;;;0.5;;
26824;SDS011;14402;48.178;11.566;2023-08-08T02:41:19;0.6;;;0.5;;
26824;SDS011;14402;48.178;11.566;2023-08-08T02:41:49;0.9;;;0.6;;
26824;SDS011;14402;48.178;11.566;2023-08-08T02:42:19;1.1;;;0.6;;
26824;SDS011;14402;48.178;11.566;2023-08-08T02:42:49;1.1;;;0.6;;
26824;SDS011;14402;48.178;11.566;2023-08-08T02:43:19;1.1;;;0.6;;
26824;SDS011;14402;48.178;11.566;2023-08-08T02:43:49;1.3;;;0.7;;
26824;SDS011;14402;48.178;11.566;2023-08-08T02:44:19;1.5;;;0.8;;
26824;SDS011;14402;48.178;11.566;2023-08-08T02:44:49;1.5;;;0.8;;
26824;SDS011;14402;48.178;11.566;2023-08-08T02:45:19;1.5;;;0.8;;
26824;SDS011;14402;48.178;11.566;2023-08-08T02:45:49;1.0;;;0.7;;
26824;SDS011;14402;48.178;11.566;2023-08-08T02:46:19;0.6;;;0.6;;
26824;SDS011;14402;48.178;11.566;2023-08-08T02:46:50;0.6;;;0.6;;
26824;SDS011;14402;48.178;11.566;2023-08-08T02:47:20;0.6;;;0.6;;
26824;SDS011;14402;48.178;11.566;2023-08-08T02:47:50;1.3;;;0.6;;
26824;SDS011;14402;48.178;11.566;2023-08-08T02:48:20;2.1;;;0.7;;
26824;SDS011;14402;48.178;11.566;2023-08-08T02:48:50;2.1;;;0.7;;
26824;SDS011;14402;48.178;11.566;2023-08-08T02:49:20;2.1;;;0.7;;
26824;SDS011;14402;48.178;11.566;2023-08-08T02:49:50;1.6;;;0.6;;
26824;SDS011;14402;48.178;11.566;2023-08-08T02:50:20;1.1;;;0.6;;
26824;SDS011;14402;48.178;11.566;2023-08-08T02:50:50;1.1;;;0.6;;
26824;SDS011;14402;48.178;11.566;2023-08-08T02:51:20;1.1;;;0.6;;
26824;SDS011;14402;48.178;11.566;2023-08-08T02:51:50;1.0;;;0.6;;
26824;SDS011;14402;48.178;11.566;2023-08-08T02:52:20;0.8;;;0.6;;
26824;SDS011;14402;48.178;11.566;2023-08-08T02:52:50;0.8;;;0.6;;
26824;SDS011;14402;48.178;11.566;2023-08-08T02:53:20;0.8;;;0.6;;
26824;SDS011;14402;48.178;11.566;2023-08-08T02:53:50;1.3;;;0.6;;
26824;SDS011;14402;48.178;11.566;2023-08-08T02:54:21;1.8;;;0.5;;
26824;SDS011;14402;48.178;11.566;2023-08-08T02:54:51;1.8;;;0.5;;
26824;SDS011;14402;48.178;11.566;2023-08-08T02:55:21;1.8;;;0.5;;
26824;SDS011;14402;48.178;11.566;2023-08-08T02:55:51;1.5;;;0.6;;
26824;SDS011;14402;48.178;11.566;2023-08-08T02:56:21;1.1;;;0.6;;
26824;SDS011;14402;48.178;11.566;2023-08-08T02:56:51;1.1;;;0.6;;
26824;SDS011;14402;48.178;11.566;2023-08-08T02:57:21;1.1;;;0.6;;
26824;SDS011;14402;48.178;11.566;2023-08-08T02:57:51;1.1;;;0.6;;
26824;SDS011;14402;48.178;11.566;2023-08-08T02:58:21;1.1;;;0.7;;
26824;SDS011;14402;48.178;11.566;2023-08-08T02:58:51;1.1;;;0.7;;
26824;SDS011;14402;48.178;11.566;2023-08-08T02:59:21;1.1;;;0.7;;
26824;SDS011;14402;48.178;11.566;2023-08-08T02:59:51;1.0;;;0.6;;
26824;SDS011;14402;48.178;11.566;2023-08-08T03:00:21;0.8;;;0.6;;
26824;SDS011;14402;48.178;11.566;2023-08-08T03:00:52;0.8;;;0.6;;
26824;SDS011;14402;48.178;11.566;2023-08-08T03:01:22;0.8;;;0.6;;
26824;SDS011;14402;48.178;11.566;2023-08-08T03:01:52;1.9;;;0.6;;
26824;SDS011;14402;48.178;11.566;2023-08-08T03:02:22;2.9;;;0.6;;
26824;SDS011;14402;48.178;11.566;2023-08-08T03:02:52;2.9;;;0.6;;
26824;SDS011;14402;48.178;11.566;2023-08-08T03:03:22;2.9;;;0.6;;
26824;SDS011;14402;48.178;11.566;2023-08-08T03:03:52;1.8;;;0.6;;